Aviation Digital Data Service (ADDS)

Output produced by METARs form (1015 UTC 14 December 2017)
found at http://www.aviationweather.gov/adds/metars/
 
METAR text: LRCV 141000Z AUTO 26004KT 200V290 NCD 10/04 Q1010
Conditions at: LRCV (CRAIOVA , RO) observed 1000 UTC 14 December 2017
Temperature: 10.0°C (50°F)
Dewpoint: 4.0°C (39°F) [RH = 66%]
Pressure (altimeter): 29.82 inches Hg (1010.0 mb)
Winds: from the W (260 degrees) at 5 MPH (4 knots; 2.1 m/s)
Visibility: missing
Ceiling: at least 12,000 feet AGL
Clouds: sky clear below 12,000 feet AGL
Weather: no significant weather observed at this time

Forecast for: LRCV (CRAIOVA , RO)
Text: TAF LRCV 140800Z 1409/1418 23008KT CAVOK
Forecast period: 0900 to 1800 UTC 14 December 2017
Forecast type: FROM: standard forecast or significant change
Winds: from the SW (230 degrees) at 9 MPH (8 knots; 4.2 m/s)
Visibility: 6 or more miles (10+ km)
Clouds: not forecast
Weather: NSW  (no significant weather)